createdAt,value
2019-03-26T00:01:24.301Z,12.73
2019-03-26T00:04:20.442Z,13.28
2019-03-26T00:07:17.497Z,14.18
2019-03-26T00:10:14.445Z,16.65
2019-03-26T00:13:10.632Z,15.98
2019-03-26T00:16:07.238Z,13.30
2019-03-26T00:19:03.355Z,15.30
2019-03-26T00:22:03.870Z,12.45
2019-03-26T00:25:00.492Z,14.03
2019-03-26T00:27:57.943Z,12.13
2019-03-26T00:30:54.923Z,14.25
2019-03-26T00:33:51.872Z,13.72
2019-03-26T00:36:47.828Z,17.05
2019-03-26T00:39:43.624Z,11.08
2019-03-26T00:42:39.445Z,13.53
2019-03-26T00:45:36.301Z,12.90
2019-03-26T00:48:32.778Z,13.95
2019-03-26T00:51:29.337Z,16.20
2019-03-26T00:54:25.429Z,13.65
2019-03-26T00:57:22.111Z,13.55
2019-03-26T01:00:53.691Z,12.28
2019-03-26T01:03:49.681Z,12.93
2019-03-26T01:06:46.765Z,13.75
2019-03-26T01:09:43.464Z,13.88
2019-03-26T01:12:40.697Z,16.62
2019-03-26T01:15:37.869Z,13.05
2019-03-26T01:18:33.848Z,9.68
2019-03-26T01:21:29.914Z,10.90
2019-03-26T01:24:26.559Z,13.60
2019-03-26T01:27:23.917Z,15.38
2019-03-26T01:30:20.645Z,10.65
2019-03-26T01:33:18.057Z,15.45
2019-03-26T01:36:15.736Z,9.45
2019-03-26T01:39:13.277Z,12.03
2019-03-26T01:42:09.603Z,10.25
2019-03-26T01:45:06.852Z,13.18
2019-03-26T01:48:03.476Z,11.57
2019-03-26T01:51:00.419Z,13.53
2019-03-26T01:53:58.006Z,14.73
2019-03-26T01:56:54.322Z,12.00
2019-03-26T01:59:51.659Z,10.20
2019-03-26T02:02:48.807Z,11.15
2019-03-26T02:05:47.389Z,10.18
2019-03-26T02:08:44.274Z,12.50
2019-03-26T02:11:41.880Z,11.53
2019-03-26T02:14:40.521Z,11.95
2019-03-26T02:17:38.124Z,12.53
2019-03-26T02:20:35.838Z,13.30
2019-03-26T02:23:32.462Z,11.30
2019-03-26T02:26:30.011Z,13.40
2019-03-26T02:29:26.963Z,12.60
2019-03-26T02:32:23.616Z,13.65
2019-03-26T02:35:21.249Z,9.85
2019-03-26T02:38:18.853Z,15.15
2019-03-26T02:41:16.193Z,13.38
2019-03-26T02:44:12.773Z,10.93
2019-03-26T02:47:10.575Z,14.13
2019-03-26T02:50:08.335Z,14.18
2019-03-26T02:53:08.722Z,15.63
2019-03-26T02:56:04.624Z,11.63
2019-03-26T02:59:02.752Z,15.88
2019-03-26T03:01:59.921Z,15.15
2019-03-26T03:04:57.530Z,21.33
2019-03-26T03:07:55.004Z,12.95
2019-03-26T03:10:51.918Z,16.52
2019-03-26T03:13:49.516Z,14.00
2019-03-26T03:16:47.468Z,14.90
2019-03-26T03:19:44.704Z,14.45
2019-03-26T03:22:43.247Z,11.65
2019-03-26T03:25:40.973Z,12.30
2019-03-26T03:28:38.744Z,14.10
2019-03-26T03:31:36.172Z,12.35
2019-03-26T03:34:33.579Z,12.55
2019-03-26T03:37:32.755Z,12.58
2019-03-26T03:40:28.789Z,11.12
2019-03-26T03:43:26.801Z,13.48
2019-03-26T03:46:23.813Z,13.80
2019-03-26T03:49:26.310Z,13.22
2019-03-26T03:52:23.768Z,11.93
2019-03-26T03:55:21.518Z,15.60
2019-03-26T03:58:20.600Z,11.85
2019-03-26T04:01:17.355Z,11.90
2019-03-26T04:04:19.771Z,14.50
2019-03-26T04:07:18.540Z,12.37
2019-03-26T04:10:15.054Z,14.87
2019-03-26T04:13:12.191Z,11.78
2019-03-26T04:16:10.651Z,12.37
2019-03-26T04:19:08.418Z,16.35
2019-03-26T04:22:05.931Z,14.10
2019-03-26T04:25:03.977Z,14.50
2019-03-26T04:28:01.180Z,14.35
2019-03-26T04:31:00.507Z,14.05
2019-03-26T04:33:58.044Z,15.85
2019-03-26T04:36:55.179Z,15.35
2019-03-26T04:39:54.563Z,13.93
2019-03-26T04:42:52.877Z,12.23
2019-03-26T04:45:49.824Z,16.97
2019-03-26T04:48:46.875Z,13.75
2019-03-26T04:51:45.453Z,14.18
2019-03-26T04:54:42.936Z,17.35
2019-03-26T04:57:39.772Z,11.75
2019-03-26T05:00:36.716Z,13.58
2019-03-26T05:03:33.049Z,15.00
2019-03-26T05:06:37.897Z,15.20
2019-03-26T05:09:28.678Z,14.07
2019-03-26T05:12:25.990Z,14.13
2019-03-26T05:15:24.428Z,14.50
2019-03-26T05:18:22.160Z,16.30
2019-03-26T05:21:19.701Z,15.78
2019-03-26T05:24:16.487Z,13.68
2019-03-26T05:27:14.151Z,15.75
2019-03-26T05:30:14.434Z,13.72
2019-03-26T05:33:11.291Z,13.25
2019-03-26T05:36:08.774Z,13.13
2019-03-26T05:39:06.716Z,13.93
2019-03-26T05:42:03.609Z,15.45
2019-03-26T05:45:00.608Z,13.78
2019-03-26T05:47:57.927Z,14.23
2019-03-26T05:50:54.794Z,13.93
2019-03-26T05:53:51.431Z,15.40
2019-03-26T05:56:48.054Z,13.32
2019-03-26T05:59:45.856Z,15.40
2019-03-26T06:02:42.386Z,12.82
2019-03-26T06:05:39.670Z,13.45
2019-03-26T06:08:36.934Z,13.72
2019-03-26T06:11:41.733Z,13.05
2019-03-26T06:14:40.136Z,13.98
2019-03-26T06:17:37.726Z,11.78
2019-03-26T06:20:35.530Z,16.37
2019-03-26T06:23:32.501Z,15.83
2019-03-26T06:26:29.970Z,14.60
2019-03-26T06:29:27.667Z,18.98
2019-03-26T06:32:25.192Z,16.27
2019-03-26T06:35:22.721Z,14.65
2019-03-26T06:38:20.011Z,16.42
2019-03-26T06:41:17.415Z,18.48
2019-03-26T06:44:14.423Z,16.17
2019-03-26T06:47:11.781Z,26.05
2019-03-26T06:50:10.476Z,26.23
2019-03-26T06:53:19.576Z,15.40
2019-03-26T06:56:16.451Z,26.85
2019-03-26T06:59:13.729Z,15.88
2019-03-26T07:02:14.281Z,17.50
2019-03-26T07:05:12.506Z,21.10
2019-03-26T07:08:08.815Z,22.85
2019-03-26T07:11:08.116Z,21.45
2019-03-26T07:14:04.880Z,14.98
2019-03-26T07:17:02.132Z,21.05
2019-03-26T07:19:58.876Z,19.90
2019-03-26T07:22:55.345Z,21.93
2019-03-26T07:25:52.753Z,22.42
2019-03-26T07:28:50.386Z,22.85
2019-03-26T07:31:46.874Z,22.02
2019-03-26T07:34:44.377Z,24.25
2019-03-26T07:37:45.414Z,29.32
2019-03-26T07:40:39.625Z,20.70
2019-03-26T07:43:37.185Z,23.10
2019-03-26T07:46:34.491Z,22.55
2019-03-26T07:49:30.957Z,21.15
2019-03-26T07:52:28.527Z,19.92
2019-03-26T07:55:26.264Z,19.40
2019-03-26T07:58:22.878Z,20.12
2019-03-26T08:01:20.472Z,37.67
2019-03-26T08:04:17.831Z,21.15
2019-03-26T08:07:15.219Z,25.92
2019-03-26T08:10:12.320Z,25.35
2019-03-26T08:13:09.108Z,23.25
2019-03-26T08:16:06.362Z,24.72
2019-03-26T08:19:03.412Z,24.77
2019-03-26T08:22:00.042Z,28.38
2019-03-26T08:24:57.370Z,27.50
2019-03-26T08:27:54.372Z,27.37
2019-03-26T08:30:51.884Z,27.50
2019-03-26T08:33:49.581Z,28.02
2019-03-26T08:36:47.162Z,23.22
2019-03-26T08:39:46.871Z,26.52
2019-03-26T08:42:43.490Z,23.30
2019-03-26T08:45:40.131Z,28.00
2019-03-26T08:48:38.022Z,24.52
2019-03-26T08:51:34.908Z,24.15
2019-03-26T08:54:31.724Z,24.77
2019-03-26T08:57:28.597Z,27.22
2019-03-26T09:00:25.809Z,24.55
2019-03-26T09:03:23.066Z,21.05
2019-03-26T09:06:19.799Z,25.85
2019-03-26T09:09:16.611Z,22.13
2019-03-26T09:12:15.356Z,23.30
2019-03-26T09:15:14.569Z,25.80
2019-03-26T09:18:16.298Z,15.43
2019-03-26T09:21:13.840Z,23.40
2019-03-26T09:24:14.261Z,18.15
2019-03-26T09:27:12.573Z,15.23
2019-03-26T09:30:14.048Z,15.72
2019-03-26T09:33:10.872Z,13.35
2019-03-26T09:36:08.408Z,15.23
2019-03-26T09:39:07.214Z,12.82
2019-03-26T09:42:04.312Z,12.55
2019-03-26T09:45:01.670Z,14.13
2019-03-26T09:47:58.363Z,15.50
2019-03-26T09:50:55.560Z,12.70
2019-03-26T09:53:53.165Z,15.53
2019-03-26T09:56:50.031Z,15.70
2019-03-26T09:59:47.432Z,16.62
2019-03-26T10:02:44.994Z,13.20
2019-03-26T10:05:42.909Z,13.45
2019-03-26T10:08:52.195Z,9.98
2019-03-26T10:11:41.573Z,8.95
2019-03-26T10:14:40.059Z,10.55
2019-03-26T10:17:37.779Z,11.55
2019-03-26T10:20:35.013Z,10.20
2019-03-26T10:23:33.373Z,12.43
2019-03-26T10:26:30.947Z,10.98
2019-03-26T10:29:30.402Z,13.15
2019-03-26T10:32:25.451Z,8.43
2019-03-26T10:35:22.117Z,11.08
2019-03-26T10:38:19.809Z,8.95
2019-03-26T10:41:18.750Z,14.07
2019-03-26T10:44:15.745Z,11.80
2019-03-26T10:47:13.803Z,11.25
2019-03-26T10:50:11.116Z,11.65
2019-03-26T10:53:09.613Z,10.25
2019-03-26T10:56:07.084Z,7.05
2019-03-26T10:59:05.159Z,9.40
2019-03-26T11:02:01.537Z,10.65
2019-03-26T11:04:58.845Z,8.90
2019-03-26T11:07:56.601Z,9.53
2019-03-26T11:10:54.446Z,6.78
2019-03-26T11:13:52.053Z,12.43
2019-03-26T11:16:48.899Z,9.03
2019-03-26T11:19:46.800Z,5.37
2019-03-26T11:22:45.802Z,10.32
2019-03-26T11:25:42.791Z,6.78
2019-03-26T11:28:40.034Z,6.37
2019-03-26T11:31:37.611Z,16.77
2019-03-26T11:34:34.958Z,9.63
2019-03-26T11:37:34.990Z,8.95
2019-03-26T11:40:43.966Z,8.40
2019-03-26T11:43:41.554Z,7.28
2019-03-26T11:46:39.449Z,5.70
2019-03-26T11:49:37.024Z,4.75
2019-03-26T11:52:35.962Z,4.10
2019-03-26T11:55:32.891Z,5.70
2019-03-26T11:58:31.029Z,6.70
2019-03-26T12:01:27.891Z,8.68
2019-03-26T12:04:25.340Z,7.33
2019-03-26T12:07:22.872Z,5.87
2019-03-26T12:10:27.735Z,8.80
2019-03-26T12:13:42.611Z,11.85
2019-03-26T12:16:39.569Z,7.70
2019-03-26T12:19:37.070Z,10.10
2019-03-26T12:22:33.895Z,10.32
2019-03-26T12:25:31.681Z,11.70
2019-03-26T12:28:28.979Z,9.25
2019-03-26T12:31:26.722Z,13.48
2019-03-26T12:34:23.280Z,8.40
2019-03-26T12:37:21.073Z,10.35
2019-03-26T12:40:18.479Z,8.25
2019-03-26T12:43:16.155Z,12.53
2019-03-26T12:46:13.095Z,10.18
2019-03-26T12:49:09.983Z,7.85
2019-03-26T12:52:07.978Z,7.78
2019-03-26T12:55:05.277Z,4.75
2019-03-26T12:58:02.132Z,9.18
2019-03-26T13:01:00.210Z,5.42
2019-03-26T13:04:11.682Z,5.65
2019-03-26T13:06:56.313Z,7.22
2019-03-26T13:09:54.020Z,7.70
2019-03-26T13:12:51.847Z,9.58
2019-03-26T13:15:48.876Z,9.70
2019-03-26T13:18:46.373Z,7.60
2019-03-26T13:21:43.090Z,8.28
2019-03-26T13:24:40.675Z,9.63
2019-03-26T13:27:38.303Z,7.80
2019-03-26T13:30:35.965Z,6.37
2019-03-26T13:33:34.195Z,9.03
2019-03-26T13:36:30.745Z,6.47
2019-03-26T13:39:28.305Z,6.92
2019-03-26T13:42:26.368Z,7.28
2019-03-26T13:45:23.367Z,10.65
2019-03-26T13:48:20.786Z,5.55
2019-03-26T13:51:17.771Z,10.23
2019-03-26T13:54:15.531Z,9.20
2019-03-26T13:57:12.905Z,5.42
2019-03-26T14:00:13.932Z,12.55
2019-03-26T14:03:11.742Z,5.85
2019-03-26T14:06:09.618Z,9.43
2019-03-26T14:09:09.843Z,8.10
2019-03-26T14:12:07.458Z,7.25
2019-03-26T14:15:05.235Z,7.45
2019-03-26T14:18:02.721Z,6.25
2019-03-26T14:20:59.867Z,6.05
2019-03-26T14:23:56.821Z,7.67
2019-03-26T14:26:55.092Z,10.35
2019-03-26T14:29:52.894Z,8.40
2019-03-26T14:32:49.908Z,3.65
2019-03-26T14:35:47.111Z,5.03
2019-03-26T14:38:44.330Z,7.00
2019-03-26T14:41:41.293Z,7.55
2019-03-26T14:44:38.354Z,10.28
2019-03-26T14:47:36.065Z,6.80
2019-03-26T14:50:33.990Z,5.85
2019-03-26T14:53:33.242Z,6.25
2019-03-26T14:56:32.960Z,8.98
2019-03-26T14:59:29.785Z,8.35
2019-03-26T15:02:26.592Z,7.37
2019-03-26T15:05:23.989Z,7.85
2019-03-26T15:08:21.674Z,6.78
2019-03-26T15:11:18.495Z,9.80
2019-03-26T15:14:16.310Z,10.95
2019-03-26T15:17:13.767Z,8.25
2019-03-26T15:20:11.841Z,7.72
2019-03-26T15:23:10.134Z,5.65
2019-03-26T15:26:08.056Z,7.92
2019-03-26T15:29:05.741Z,4.08
2019-03-26T15:32:04.429Z,6.10
2019-03-26T15:35:01.355Z,5.05
2019-03-26T15:37:58.381Z,7.05
2019-03-26T15:40:56.097Z,7.20
2019-03-26T15:43:54.327Z,5.62
2019-03-26T15:46:51.621Z,5.50
2019-03-26T15:49:49.891Z,7.28
2019-03-26T15:52:47.697Z,7.33
2019-03-26T15:55:44.763Z,7.37
2019-03-26T15:58:41.758Z,8.40
2019-03-26T16:01:39.571Z,6.10
2019-03-26T16:04:37.074Z,4.28
2019-03-26T16:07:34.762Z,7.85
2019-03-26T16:10:32.544Z,5.40
2019-03-26T16:13:30.415Z,9.95
2019-03-26T16:16:27.530Z,7.72
2019-03-26T16:19:32.157Z,7.95
2019-03-26T16:22:23.505Z,7.40
2019-03-26T16:25:20.399Z,7.00
2019-03-26T16:28:18.731Z,8.73
2019-03-26T16:31:15.410Z,9.10
2019-03-26T16:34:12.850Z,4.05
2019-03-26T16:37:09.730Z,6.33
2019-03-26T16:40:11.364Z,5.05
2019-03-26T16:43:09.556Z,8.08
2019-03-26T16:46:06.368Z,6.53
2019-03-26T16:49:03.402Z,7.15
2019-03-26T16:52:00.979Z,10.98
2019-03-26T16:54:59.722Z,7.62
2019-03-26T16:57:57.280Z,9.73
2019-03-26T17:00:54.513Z,5.28
2019-03-26T17:03:52.620Z,6.25
2019-03-26T17:06:49.957Z,4.35
2019-03-26T17:09:47.304Z,5.78
2019-03-26T17:12:44.954Z,6.33
2019-03-26T17:15:41.671Z,7.10
2019-03-26T17:18:39.415Z,5.28
2019-03-26T17:21:36.025Z,8.83
2019-03-26T17:24:32.415Z,8.98
2019-03-26T17:27:29.321Z,10.05
2019-03-26T17:30:27.164Z,9.63
2019-03-26T17:33:23.794Z,10.05
2019-03-26T17:36:21.513Z,10.68
2019-03-26T17:39:17.933Z,8.18
2019-03-26T17:42:17.547Z,10.90
2019-03-26T17:45:15.435Z,8.10
2019-03-26T17:48:12.794Z,6.42
2019-03-26T17:51:10.439Z,12.35
2019-03-26T17:54:08.543Z,8.80
2019-03-26T17:57:06.087Z,10.30
2019-03-26T18:00:03.919Z,8.15
2019-03-26T18:03:02.873Z,7.90
2019-03-26T18:06:08.101Z,9.78
2019-03-26T18:09:07.600Z,8.38
2019-03-26T18:12:05.288Z,9.80
2019-03-26T18:15:02.286Z,7.15
2019-03-26T18:17:59.053Z,8.50
2019-03-26T18:20:56.431Z,9.68
2019-03-26T18:23:55.554Z,14.73
2019-03-26T18:26:52.402Z,12.55
2019-03-26T18:29:49.994Z,10.82
2019-03-26T18:32:47.710Z,12.70
2019-03-26T18:35:45.583Z,8.85
2019-03-26T18:38:42.035Z,13.05
2019-03-26T18:41:39.786Z,16.87
2019-03-26T18:44:37.424Z,13.05
2019-03-26T18:47:35.364Z,11.22
2019-03-26T18:50:32.624Z,8.25
2019-03-26T18:53:29.987Z,10.00
2019-03-26T18:56:27.274Z,7.75
2019-03-26T18:59:24.739Z,9.43
2019-03-26T19:02:24.986Z,13.20
2019-03-26T19:05:21.753Z,8.28
2019-03-26T19:08:18.457Z,9.73
2019-03-26T19:11:16.649Z,12.37
2019-03-26T19:14:15.895Z,11.03
2019-03-26T19:17:13.587Z,8.50
2019-03-26T19:20:10.936Z,9.13
2019-03-26T19:23:07.502Z,8.35
2019-03-26T19:26:04.648Z,11.53
2019-03-26T19:29:02.241Z,11.80
2019-03-26T19:31:58.810Z,11.97
2019-03-26T19:34:55.663Z,12.43
2019-03-26T19:37:54.506Z,14.07
2019-03-26T19:40:51.327Z,14.83
2019-03-26T19:43:51.349Z,10.85
2019-03-26T19:46:51.280Z,12.18
2019-03-26T19:49:48.676Z,12.82
2019-03-26T19:52:48.443Z,14.63
2019-03-26T19:56:02.167Z,10.58
2019-03-26T19:59:13.926Z,13.85
2019-03-26T20:02:35.282Z,11.35
2019-03-26T20:05:36.054Z,11.55
2019-03-26T20:08:33.408Z,10.78
2019-03-26T20:11:30.501Z,13.80
2019-03-26T20:14:28.017Z,12.75
2019-03-26T20:17:24.889Z,10.45
2019-03-26T20:20:22.579Z,10.32
2019-03-26T20:23:32.040Z,10.93
2019-03-26T20:26:26.269Z,14.80
2019-03-26T20:29:24.724Z,11.97
2019-03-26T20:32:25.769Z,13.68
2019-03-26T20:35:24.875Z,10.60
2019-03-26T20:38:34.777Z,11.25
2019-03-26T20:41:33.631Z,9.75
2019-03-26T20:44:43.442Z,11.35
2019-03-26T20:47:40.056Z,14.05
2019-03-26T20:50:40.561Z,9.63
2019-03-26T20:53:39.339Z,10.82
2019-03-26T20:56:40.948Z,9.28
2019-03-26T20:59:39.591Z,14.83
2019-03-26T21:02:36.898Z,10.53
2019-03-26T21:05:37.969Z,11.95
2019-03-26T21:08:34.736Z,10.60
2019-03-26T21:11:32.911Z,10.63
2019-03-26T21:14:30.284Z,11.35
2019-03-26T21:17:26.943Z,11.05
2019-03-26T21:20:26.336Z,12.65
2019-03-26T21:23:26.457Z,12.57
2019-03-26T21:26:26.477Z,10.30
2019-03-26T21:29:23.366Z,12.55
2019-03-26T21:32:21.003Z,14.55
2019-03-26T21:35:20.293Z,11.70
2019-03-26T21:38:16.946Z,11.30
2019-03-26T21:41:19.298Z,12.75
2019-03-26T21:44:17.075Z,10.50
2019-03-26T21:47:14.207Z,10.18
2019-03-26T21:50:11.871Z,13.25
2019-03-26T21:53:09.928Z,11.22
2019-03-26T21:56:07.365Z,9.05
2019-03-26T21:59:04.750Z,8.58
2019-03-26T22:02:01.800Z,11.78
2019-03-26T22:04:58.333Z,8.45
2019-03-26T22:07:55.442Z,17.60
2019-03-26T22:10:52.539Z,15.05
2019-03-26T22:13:49.572Z,12.63
2019-03-26T22:16:47.565Z,10.00
2019-03-26T22:19:44.436Z,11.48
2019-03-26T22:22:41.900Z,10.95
2019-03-26T22:25:38.674Z,12.78
2019-03-26T22:28:35.302Z,10.45
2019-03-26T22:31:32.536Z,9.95
2019-03-26T22:34:29.635Z,13.68
2019-03-26T22:37:28.588Z,14.20
2019-03-26T22:40:25.183Z,14.55
2019-03-26T22:43:25.276Z,7.87
2019-03-26T22:46:22.846Z,10.78
2019-03-26T22:49:21.121Z,9.40
2019-03-26T22:52:18.788Z,7.78
2019-03-26T22:55:15.578Z,9.60
2019-03-26T22:58:13.432Z,9.65
2019-03-26T23:01:10.579Z,12.50
2019-03-26T23:04:31.378Z,10.28
2019-03-26T23:07:37.513Z,6.87
2019-03-26T23:10:39.805Z,7.45
2019-03-26T23:13:36.733Z,7.65
2019-03-26T23:16:34.524Z,9.55
2019-03-26T23:19:31.590Z,8.88
2019-03-26T23:22:28.269Z,8.08
2019-03-26T23:25:26.269Z,6.50
2019-03-26T23:28:24.281Z,10.00
2019-03-26T23:31:22.023Z,14.95
2019-03-26T23:34:19.442Z,11.28
2019-03-26T23:37:17.396Z,7.08
2019-03-26T23:40:14.811Z,11.18
2019-03-26T23:43:14.116Z,8.78
2019-03-26T23:46:11.578Z,8.30
2019-03-26T23:49:10.700Z,9.98
2019-03-26T23:52:07.645Z,7.65
2019-03-26T23:55:05.703Z,5.20
2019-03-26T23:58:03.687Z,9.50
